Time;durP1;ratioP1;P1;durP2;ratioP2;P2;SDS_P1;SDS_P2;PMS_P1;PMS_P2;Temp;Humidity;BMP_temperature;BMP_pressure;BME280_temperature;BME280_humidity;BME280_pressure;Samples;Min_cycle;Max_cycle;Signal;HPM_P1;HPM_P2
2022/11/15 00:05:51;;;;;;;32.33;14.73;;;;;;;10.06;100.00;99490.25;4203530;82;28543;-89
2022/11/15 00:12:14;;;;;;;29.10;12.95;;;;;;;10.93;100.00;99479.31;4218676;82;28501;-88
2022/11/15 00:18:33;;;;;;;30.30;13.53;;;;;;;10.69;100.00;99474.30;4211717;82;28604;-88
2022/11/15 00:24:55;;;;;;;25.23;11.35;;;;;;;10.81;100.00;99471.69;4239542;82;28652;-88
2022/11/15 00:31:15;;;;;;;24.60;11.50;;;;;;;10.43;100.00;99464.91;4214504;81;28562;-88
2022/11/15 00:37:47;;;;;;;27.00;11.90;;;;;;;9.88;100.00;99468.15;4156349;82;28532;-88
2022/11/15 00:44:19;;;;;;;28.95;12.13;;;;;;;10.15;100.00;99457.21;4187151;82;28586;-89
2022/11/15 00:51:02;;;;;;;25.65;11.88;;;;;;;10.26;100.00;99448.47;4163698;83;28536;-92
2022/11/15 00:57:21;;;;;;;31.30;13.55;;;;;;;10.55;100.00;99437.30;4222628;82;28561;-91
2022/11/15 01:03:54;;;;;;;32.17;12.82;;;;;;;10.74;100.00;99428.72;4241410;82;28588;-89
2022/11/15 01:10:29;;;;;;;;;;;;;;;;;;;;;
2022/11/15 01:16:41;;;;;;;30.80;12.30;;;;;;;9.86;100.00;99437.47;4183604;82;28542;-90
2022/11/15 01:23:01;;;;;;;30.10;12.35;;;;;;;10.07;100.00;99433.32;4203768;83;28559;-90
2022/11/15 01:29:20;;;;;;;30.68;11.80;;;;;;;9.94;100.00;99435.58;4165276;82;28560;-92
2022/11/15 01:35:40;;;;;;;24.63;10.65;;;;;;;9.97;100.00;99428.41;4312394;81;28526;-90
2022/11/15 01:42:00;;;;;;;27.48;11.45;;;;;;;9.99;100.00;99423.14;4224860;82;28540;-92
2022/11/15 01:48:25;;;;;;;26.80;10.82;;;;;;;10.45;100.00;99426.52;4224936;83;28536;-92
2022/11/15 01:54:49;;;;;;;27.13;11.55;;;;;;;10.62;100.00;99424.62;4242757;81;28514;-92
2022/11/15 02:01:09;;;;;;;23.65;11.57;;;;;;;10.44;100.00;99420.84;4308834;80;28590;-92
2022/11/15 02:07:30;;;;;;;25.97;11.18;;;;;;;10.63;100.00;99411.47;4197962;81;28522;-92
2022/11/15 02:13:50;;;;;;;29.25;11.93;;;;;;;10.58;100.00;99409.45;4183414;82;28517;-89
2022/11/15 02:20:33;;;;;;;25.75;11.40;;;;;;;10.59;100.00;99404.37;4198144;82;28539;-91
2022/11/15 02:27:21;;;;;;;25.77;12.07;;;;;;;10.60;100.00;99388.53;4246803;82;28569;-90
2022/11/15 02:34:08;;;;;;;26.30;11.43;;;;;;;10.66;100.00;99386.82;4156825;83;28581;-90
2022/11/15 02:40:48;;;;;;;23.18;11.15;;;;;;;10.70;97.97;99376.44;4163716;83;28588;-89
2022/11/15 02:47:13;;;;;;;18.65;9.63;;;;;;;10.58;98.51;99379.88;4182926;82;28568;-89
2022/11/15 02:53:33;;;;;;;20.43;10.10;;;;;;;10.29;97.63;99375.46;4217108;80;28507;-89
2022/11/15 03:00:03;;;;;;;20.37;10.63;;;;;;;10.24;98.89;99373.14;4163838;84;28499;-90
2022/11/15 03:06:54;;;;;;;22.62;9.53;;;;;;;10.58;98.54;99358.88;4199384;83;28555;-88
2022/11/15 03:13:38;;;;;;;21.07;10.05;;;;;;;10.54;98.46;99357.14;4179465;82;28536;-89
2022/11/15 03:20:01;;;;;;;17.17;9.45;;;;;;;10.47;99.05;99349.70;4199099;82;28561;-89
2022/11/15 03:26:23;;;;;;;15.65;9.60;;;;;;;10.32;94.90;99349.48;4166308;83;28521;-88
2022/11/15 03:32:51;;;;;;;17.00;9.33;;;;;;;10.29;96.66;99344.55;4224002;83;28551;-89
2022/11/15 03:39:14;;;;;;;19.85;9.53;;;;;;;10.32;97.11;99337.92;4227342;83;28554;-88
2022/11/15 03:45:42;;;;;;;17.42;9.05;;;;;;;10.07;97.06;99334.73;4264991;80;28527;-88
2022/11/15 03:52:04;;;;;;;17.05;9.30;;;;;;;10.21;98.87;99315.28;4205374;82;28517;-88
2022/11/15 03:58:24;;;;;;;19.42;9.50;;;;;;;10.39;96.02;99309.63;4169582;82;28546;-88
2022/11/15 04:04:44;;;;;;;15.83;8.30;;;;;;;10.22;96.38;99302.14;4193701;82;28536;-88
2022/11/15 04:11:04;;;;;;;14.07;7.92;;;;;;;9.95;95.17;99298.38;4208168;81;28525;-88
2022/11/15 04:17:23;;;;;;;18.92;9.10;;;;;;;9.62;97.69;99293.58;4184216;82;28503;-87
2022/11/15 04:30:21;;;;;;;17.55;7.97;;;;;;;9.72;96.81;99274.28;4151761;82;28525;-86
2022/11/15 04:43:19;;;;;;;21.95;6.58;;;;;;;9.63;96.67;99255.46;4245885;80;28552;-85
2022/11/15 04:49:39;;;;;;;14.87;6.92;;;;;;;9.23;96.51;99247.74;4192471;83;28525;-87
2022/11/15 04:55:59;;;;;;;14.78;7.35;;;;;;;8.95;96.63;99241.70;4188794;82;28597;-91
2022/11/15 05:02:19;;;;;;;16.90;7.00;;;;;;;9.27;96.43;99239.55;4250214;80;28618;-90
2022/11/15 05:08:39;;;;;;;13.58;6.65;;;;;;;8.86;95.93;99233.09;4145543;82;28512;-90
2022/11/15 05:15:01;;;;;;;17.62;7.12;;;;;;;8.90;95.82;99234.33;4198147;83;28510;-89
2022/11/15 05:21:21;;;;;;;14.73;7.50;;;;;;;8.73;97.01;99225.14;4204731;82;28550;-93
2022/11/15 05:27:41;;;;;;;16.77;7.00;;;;;;;9.25;97.73;99220.17;4176071;82;28532;-88
2022/11/15 05:34:03;;;;;;;16.62;7.30;;;;;;;9.29;96.35;99218.69;4211940;82;28497;-89
2022/11/15 05:40:24;;;;;;;16.82;7.55;;;;;;;9.40;96.01;99213.95;4204431;82;28538;-87
2022/11/15 05:46:45;;;;;;;20.57;7.35;;;;;;;9.32;97.23;99198.95;4216634;82;28604;-83
2022/11/15 05:53:05;;;;;;;13.38;7.08;;;;;;;9.46;98.81;99204.20;4196512;83;28553;-81
2022/11/15 05:59:25;;;;;;;17.15;8.00;;;;;;;9.54;98.58;99206.61;4198425;83;28545;-80
2022/11/15 06:05:45;;;;;;;17.73;8.55;;;;;;;8.89;100.00;99214.42;4190574;83;28525;-85
2022/11/15 06:12:06;;;;;;;17.20;8.28;;;;;;;8.62;100.00;99203.33;4204163;83;28488;-88
2022/11/15 06:18:26;;;;;;;16.90;8.68;;;;;;;8.84;100.00;99195.47;4166642;82;28533;-87
2022/11/15 06:24:46;;;;;;;19.82;9.48;;;;;;;9.22;100.00;99196.47;4196160;82;28537;-82
2022/11/15 06:31:11;;;;;;;24.07;8.23;;;;;;;9.39;100.00;99184.13;4145982;83;28555;-82
2022/11/15 06:37:33;;;;;;;17.87;8.93;;;;;;;9.08;99.48;99201.11;4219833;82;28477;-82
2022/11/15 06:43:52;;;;;;;19.85;8.40;;;;;;;9.24;98.32;99201.90;4174520;83;28559;-81
2022/11/15 06:50:14;;;;;;;17.17;8.95;;;;;;;9.47;94.88;99194.59;4180597;83;28576;-82
2022/11/15 06:56:35;;;;;;;17.57;9.15;;;;;;;9.81;94.34;99188.08;4212238;82;28544;-80
2022/11/15 07:02:55;;;;;;;16.27;8.58;;;;;;;10.02;93.54;99194.90;4206185;83;28527;-80
2022/11/15 07:09:14;;;;;;;17.82;9.18;;;;;;;9.76;93.99;99196.30;4159478;83;28593;-80
2022/11/15 07:15:35;;;;;;;15.72;8.55;;;;;;;10.08;92.79;99186.47;4212334;83;28625;-80
2022/11/15 07:21:55;;;;;;;19.30;8.38;;;;;;;9.85;93.28;99196.02;4175396;82;28564;-81
2022/11/15 07:28:15;;;;;;;14.47;7.80;;;;;;;9.72;93.62;99191.05;4168724;82;28572;-80
2022/11/15 07:34:35;;;;;;;17.82;8.75;;;;;;;9.33;91.03;99193.87;4115742;84;28598;-81
2022/11/15 07:41:00;;;;;;;13.80;7.25;;;;;;;9.23;92.11;99181.48;4184364;81;28526;-80
2022/11/15 07:47:20;;;;;;;14.40;7.60;;;;;;;9.40;91.12;99178.26;4207362;81;28543;-80
2022/11/15 07:53:44;;;;;;;13.93;7.42;;;;;;;9.48;90.74;99176.64;4181907;83;28579;-80
2022/11/15 08:00:06;;;;;;;17.73;8.55;;;;;;;9.34;89.59;99165.20;4191594;82;28622;-80
2022/11/15 08:06:26;;;;;;;14.73;8.23;;;;;;;9.54;90.58;99165.00;4145085;82;28597;-80
2022/11/15 08:12:59;;;;;;;15.55;8.43;;;;;;;9.81;89.93;99159.38;4165492;82;28609;-80
2022/11/15 08:19:19;;;;;;;16.23;8.98;;;;;;;9.94;90.58;99151.67;4181234;83;28513;-80
2022/11/15 08:25:39;;;;;;;18.40;9.05;;;;;;;10.90;88.00;99149.45;4185193;82;28547;-81
2022/11/15 08:31:58;;;;;;;16.60;9.23;;;;;;;11.27;85.18;99162.20;4180007;82;28544;-81
2022/11/15 08:38:18;;;;;;;19.27;8.45;;;;;;;11.01;82.18;99142.73;4194615;81;28553;-81
2022/11/15 08:44:38;;;;;;;15.83;8.65;;;;;;;10.58;85.55;99139.75;4210807;82;28592;-80
2022/11/15 08:50:57;;;;;;;17.57;8.73;;;;;;;10.52;85.64;99141.48;4221017;81;28551;-80
2022/11/15 08:57:17;;;;;;;16.15;9.63;;;;;;;11.01;84.45;99142.73;4212146;82;28517;-80
2022/11/15 09:03:40;;;;;;;23.02;10.78;;;;;;;10.91;83.71;99138.44;4205836;82;28599;-80
2022/11/15 09:10:00;;;;;;;18.48;10.03;;;;;;;11.27;82.67;99134.45;4182152;82;28521;-81
2022/11/15 09:16:20;;;;;;;17.77;10.15;;;;;;;12.14;79.44;99132.05;4199053;83;28553;-81
2022/11/15 09:22:39;;;;;;;19.00;10.30;;;;;;;12.25;79.20;99122.27;4197931;83;28543;-80
2022/11/15 09:29:01;;;;;;;17.87;10.18;;;;;;;12.14;78.38;99129.36;4211506;82;28546;-81
2022/11/15 09:35:21;;;;;;;17.85;10.88;;;;;;;12.17;79.14;99112.70;4185419;83;28498;-81
2022/11/15 09:42:19;;;;;;;21.82;11.63;;;;;;;11.95;76.59;99115.19;4188810;82;28581;-80
2022/11/15 09:48:56;;;;;;;26.57;14.35;;;;;;;12.17;75.96;99115.39;4193621;82;28512;-80
2022/11/15 09:55:21;;;;;;;32.50;16.20;;;;;;;12.34;76.17;99121.34;4216612;82;28540;-78
2022/11/15 10:01:54;;;;;;;31.45;16.75;;;;;;;12.37;76.75;99112.80;4234583;81;28512;-79
2022/11/15 10:08:20;;;;;;;33.48;16.57;;;;;;;12.53;77.13;99102.56;4228491;81;28511;-80
2022/11/15 10:14:26;;;;;;;32.93;16.67;;;;;;;12.67;76.32;99094.19;4206398;82;28513;-79
2022/11/15 10:20:30;;;;;;;28.67;15.48;;;;;;;13.07;76.28;99078.90;4184924;82;28566;-79
2022/11/15 10:26:32;;;;;;;35.83;20.48;;;;;;;13.34;74.86;99072.27;4208831;82;28553;-79
2022/11/15 10:32:36;;;;;;;26.48;14.53;;;;;;;13.11;75.02;99055.73;4180749;82;28586;-78
2022/11/15 10:38:52;;;;;;;27.25;15.25;;;;;;;12.68;76.62;99052.66;4194667;82;28558;-79
2022/11/15 10:44:54;;;;;;;23.50;13.30;;;;;;;12.99;77.75;99035.61;4191081;82;28554;-80
2022/11/15 10:50:56;;;;;;;21.07;13.22;;;;;;;13.00;77.65;99019.70;4189086;82;28503;-80
2022/11/15 10:57:00;;;;;;;22.52;13.25;;;;;;;12.76;79.87;99016.36;4221433;82;28579;-80
2022/11/15 11:03:26;;;;;;;20.23;11.97;;;;;;;12.64;80.84;99004.30;4188210;82;28498;-80
2022/11/15 11:09:35;;;;;;;27.58;13.85;;;;;;;12.51;82.19;98991.98;4190595;83;28539;-80
2022/11/15 11:15:44;;;;;;;21.17;13.38;;;;;;;12.63;82.96;98981.09;4190644;82;28577;-80
2022/11/15 11:21:55;;;;;;;26.77;16.27;;;;;;;12.41;83.93;98969.70;4228182;82;28550;-80
2022/11/15 11:28:30;;;;;;;25.50;15.70;;;;;;;12.44;85.27;98963.00;4225243;81;28561;-80
2022/11/15 11:34:54;;;;;;;28.80;16.23;;;;;;;12.75;84.74;98966.97;4225547;81;28551;-80
2022/11/15 11:41:16;;;;;;;30.65;18.17;;;;;;;12.93;84.13;98966.42;4237000;81;28543;-79
2022/11/15 11:47:27;;;;;;;36.58;19.98;;;;;;;13.04;83.92;98955.25;4250160;80;28600;-79
2022/11/15 11:53:39;;;;;;;30.20;17.30;;;;;;;13.12;83.99;98944.03;4234291;81;28526;-80
2022/11/15 11:59:55;;;;;;;36.73;19.70;;;;;;;13.18;84.37;98931.41;4263389;81;28650;-80
2022/11/15 12:06:16;;;;;;;36.85;20.32;;;;;;;13.23;84.44;98921.48;4210066;81;28559;-80
2022/11/15 12:12:35;;;;;;;33.30;18.80;;;;;;;13.34;83.63;98913.52;4232154;82;28556;-80
2022/11/15 12:18:37;;;;;;;34.45;19.95;;;;;;;13.20;84.05;98906.33;4244898;81;28584;-80
2022/11/15 12:24:44;;;;;;;35.40;21.10;;;;;;;13.32;83.19;98906.17;4277863;80;28575;-80
2022/11/15 12:30:53;;;;;;;32.93;18.70;;;;;;;13.32;83.16;98911.58;4288316;81;28604;-80
2022/11/15 12:36:57;;;;;;;39.00;21.07;;;;;;;13.41;81.63;98899.26;4233359;81;28563;-80
2022/11/15 12:43:03;;;;;;;39.30;21.42;;;;;;;13.50;80.99;98886.17;4284327;81;28544;-80
2022/11/15 12:49:31;;;;;;;43.05;22.02;;;;;;;13.69;80.17;98884.44;4275025;81;28567;-80
2022/11/15 12:55:33;;;;;;;38.73;20.90;;;;;;;13.87;79.82;98881.92;4273187;80;28644;-80
2022/11/15 13:01:40;;;;;;;39.40;21.90;;;;;;;14.11;78.28;98872.11;4318688;81;28531;-80
2022/11/15 13:07:47;;;;;;;39.40;22.17;;;;;;;14.29;77.81;98866.83;4287186;81;28536;-80
2022/11/15 13:13:48;;;;;;;36.42;20.75;;;;;;;14.47;76.49;98852.06;4315023;81;28472;-80
2022/11/15 13:20:11;;;;;;;35.78;21.17;;;;;;;14.56;76.04;98850.50;4244884;82;28566;-80
2022/11/15 13:26:17;;;;;;;36.73;19.60;;;;;;;14.60;75.41;98854.85;4207438;82;28582;-80
2022/11/15 13:32:20;;;;;;;38.55;20.02;;;;;;;14.68;75.64;98846.24;4152480;82;28509;-80
2022/11/15 13:38:33;;;;;;;36.17;19.85;;;;;;;14.60;75.70;98835.39;4166682;83;28635;-80
2022/11/15 13:44:34;;;;;;;35.65;19.73;;;;;;;14.68;75.59;98834.07;4167727;82;28507;-80
2022/11/15 13:50:38;;;;;;;32.48;18.23;;;;;;;14.76;75.04;98823.30;4173760;82;28521;-80
2022/11/15 13:56:45;;;;;;;32.13;17.92;;;;;;;14.59;75.65;98807.23;4223914;82;28506;-80
2022/11/15 14:02:46;;;;;;;31.62;17.85;;;;;;;14.69;75.39;98806.48;4197399;82;28529;-80
2022/11/15 14:09:15;;;;;;;30.92;18.60;;;;;;;14.60;76.01;98806.16;4218670;82;28548;-79
2022/11/15 14:15:27;;;;;;;35.65;18.50;;;;;;;14.60;76.37;98803.45;4224746;82;28539;-80
2022/11/15 14:21:29;;;;;;;31.33;17.20;;;;;;;14.63;76.55;98809.67;4216093;81;28550;-79
2022/11/15 14:27:32;;;;;;;34.88;17.25;;;;;;;14.59;76.42;98797.23;4170866;83;28593;-79
2022/11/15 14:33:36;;;;;;;31.42;17.02;;;;;;;14.47;77.58;98786.63;4203694;83;28686;-79
2022/11/15 14:39:38;;;;;;;36.80;19.65;;;;;;;14.45;77.95;98780.67;4186562;83;28566;-79
2022/11/15 14:45:40;;;;;;;33.60;18.07;;;;;;;14.40;77.32;98778.48;4240673;82;28489;-79
2022/11/15 14:51:42;;;;;;;32.85;18.55;;;;;;;14.28;78.41;98782.21;4181261;83;28537;-80
2022/11/15 14:57:43;;;;;;;30.32;17.87;;;;;;;14.21;79.44;98772.98;4189475;83;28511;-80
2022/11/15 15:03:44;;;;;;;31.00;17.82;;;;;;;14.14;79.70;98771.56;4209608;83;28520;-80
2022/11/15 15:09:46;;;;;;;31.30;16.25;;;;;;;14.08;80.84;98762.09;4200037;83;28519;-79
2022/11/15 15:15:50;;;;;;;36.23;18.62;;;;;;;13.97;81.22;98752.81;4186237;83;28513;-80
2022/11/15 15:21:51;;;;;;;30.80;17.55;;;;;;;14.21;80.07;98753.23;4242706;81;28568;-80
2022/11/15 15:27:53;;;;;;;32.53;16.77;;;;;;;14.04;81.18;98737.98;4279091;81;28554;-80
2022/11/15 15:33:55;;;;;;;31.00;16.65;;;;;;;14.17;81.32;98741.32;4284886;80;28548;-80
2022/11/15 15:39:56;;;;;;;30.77;16.50;;;;;;;14.20;81.22;98732.68;4294687;81;28564;-80
2022/11/15 15:45:58;;;;;;;31.20;17.67;;;;;;;14.20;81.32;98728.06;4249552;81;28573;-80
2022/11/15 15:52:00;;;;;;;41.50;20.85;;;;;;;13.89;82.97;98728.45;4270430;81;28525;-80
2022/11/15 15:58:01;;;;;;;34.05;17.80;;;;;;;13.85;84.14;98729.50;4279692;80;28521;-80
2022/11/15 16:04:02;;;;;;;39.75;20.35;;;;;;;14.04;83.29;98726.38;4275148;81;28496;-80
2022/11/15 16:10:26;;;;;;;40.78;21.57;;;;;;;14.04;83.14;98716.91;4262646;80;28572;-79
2022/11/15 16:16:27;;;;;;;39.63;22.00;;;;;;;13.61;85.47;98720.43;4278477;80;28637;-80
2022/11/15 16:22:32;;;;;;;40.30;21.77;;;;;;;13.85;84.32;98731.38;4247010;81;28557;-80
2022/11/15 16:28:33;;;;;;;32.73;18.98;;;;;;;13.78;84.60;98725.68;4223175;82;28538;-80
2022/11/15 16:34:34;;;;;;;35.98;19.82;;;;;;;13.81;84.85;98723.00;4190671;83;28532;-80
2022/11/15 16:40:35;;;;;;;36.08;18.67;;;;;;;13.84;84.71;98724.34;4189459;82;28523;-79
2022/11/15 16:46:38;;;;;;;35.13;18.52;;;;;;;14.03;84.24;98713.94;4212837;82;28575;-79
2022/11/15 16:52:40;;;;;;;36.68;20.52;;;;;;;14.00;84.67;98713.92;4188427;83;28464;-84
2022/11/15 16:58:41;;;;;;;45.33;25.90;;;;;;;14.06;83.74;98706.65;4179446;83;28592;-83
2022/11/15 17:04:43;;;;;;;42.25;24.20;;;;;;;13.99;83.84;98706.89;4206713;83;28513;-83
2022/11/15 17:10:44;;;;;;;50.88;28.25;;;;;;;13.72;84.70;98702.39;4157237;83;28538;-83
2022/11/15 17:16:48;;;;;;;35.73;20.08;;;;;;;14.12;83.97;98689.39;4185938;83;28525;-83
2022/11/15 17:22:51;;;;;;;34.23;19.98;;;;;;;13.86;86.08;98691.14;4195999;82;28507;-84
2022/11/15 17:28:55;;;;;;;40.83;20.90;;;;;;;13.96;85.15;98691.73;4261597;81;28502;-81
2022/11/15 17:35:00;;;;;;;30.95;18.62;;;;;;;13.93;84.88;98683.08;4205734;82;28555;-81
2022/11/15 17:41:09;;;;;;;36.53;19.60;;;;;;;13.94;85.38;98671.71;4196836;82;28768;-88
2022/11/15 17:47:11;;;;;;;36.68;20.62;;;;;;;13.84;85.72;98675.70;4175327;83;28519;-84
2022/11/15 17:53:12;;;;;;;39.27;21.07;;;;;;;13.83;85.81;98669.51;4200654;82;28528;-82
2022/11/15 17:59:15;;;;;;;35.23;19.23;;;;;;;13.85;85.74;98666.52;4198625;83;28599;-82
2022/11/15 18:05:31;;;;;;;39.53;19.73;;;;;;;13.78;86.50;98664.89;4179000;82;28568;-86
2022/11/15 18:11:38;;;;;;;40.17;20.57;;;;;;;13.81;86.51;98648.70;4187136;81;28507;-81
2022/11/15 18:17:42;;;;;;;37.35;20.65;;;;;;;13.80;86.41;98643.02;4209536;81;28579;-82
2022/11/15 18:23:44;;;;;;;35.28;21.02;;;;;;;13.81;86.33;98629.78;4214958;81;28536;-82
2022/11/15 18:29:50;;;;;;;35.48;19.92;;;;;;;13.78;86.69;98630.29;4218011;81;28529;-83
2022/11/15 18:36:02;;;;;;;37.05;20.52;;;;;;;13.65;87.45;98620.23;4179824;82;28505;-82
2022/11/15 18:42:03;;;;;;;40.85;21.93;;;;;;;13.66;87.65;98612.40;4175550;82;28507;-81
2022/11/15 18:48:05;;;;;;;36.95;21.27;;;;;;;13.79;87.36;98615.70;4173119;82;28595;-79
2022/11/15 18:54:10;;;;;;;44.23;24.32;;;;;;;13.90;86.99;98614.70;4212837;81;28511;-79
2022/11/15 19:00:15;;;;;;;40.52;23.12;;;;;;;13.71;88.00;98612.97;4191240;82;28554;-80
2022/11/15 19:06:20;;;;;;;42.65;23.02;;;;;;;13.71;87.87;98611.61;4188966;82;28540;-80
2022/11/15 19:12:21;;;;;;;40.58;23.52;;;;;;;13.69;88.54;98608.37;4179531;82;28549;-81
2022/11/15 19:18:23;;;;;;;44.60;25.10;;;;;;;13.69;88.47;98602.97;4215652;82;28557;-81
2022/11/15 19:24:26;;;;;;;41.15;22.20;;;;;;;13.60;88.99;98600.48;4231871;82;28536;-83
2022/11/15 19:30:27;;;;;;;45.23;25.55;;;;;;;13.53;89.74;98596.12;4233925;82;28515;-85
2022/11/15 19:36:31;;;;;;;51.73;26.90;;;;;;;13.58;89.56;98591.28;4258225;82;28479;-79
2022/11/15 19:42:34;;;;;;;49.45;26.65;;;;;;;13.69;88.96;98591.34;4225510;82;28542;-89
2022/11/15 19:48:38;;;;;;;52.00;26.25;;;;;;;13.73;88.51;98585.70;4250423;82;28749;-80
2022/11/15 19:54:41;;;;;;;48.42;26.85;;;;;;;13.71;88.75;98581.10;4261241;82;28557;-89
2022/11/15 20:00:43;;;;;;;47.83;26.90;;;;;;;13.57;89.66;98582.91;4281537;82;28478;-87
2022/11/15 20:06:44;;;;;;;46.23;24.32;;;;;;;13.62;89.49;98572.67;4230732;82;28563;-88
2022/11/15 20:12:47;;;;;;;42.25;23.42;;;;;;;13.57;90.17;98560.50;4263682;82;29036;-86
2022/11/15 20:18:50;;;;;;;44.15;25.02;;;;;;;13.59;90.52;98561.88;4252610;82;28581;-80
2022/11/15 20:24:52;;;;;;;45.95;24.50;;;;;;;13.63;90.20;98554.03;4265074;81;28526;-90
2022/11/15 20:38:02;;;;;;;45.00;25.02;;;;;;;13.54;91.45;98555.08;4261026;81;28570;-87
2022/11/15 20:44:07;;;;;;;46.33;25.15;;;;;;;13.63;91.02;98545.41;4286983;80;28518;-84
2022/11/15 20:50:28;;;;;;;45.25;26.12;;;;;;;13.57;92.05;98547.00;4251176;81;28559;-88
2022/11/15 20:56:41;;;;;;;49.30;27.17;;;;;;;13.71;91.34;98539.23;4202802;81;28531;-85
2022/11/15 21:02:52;;;;;;;49.38;25.30;;;;;;;13.65;92.06;98534.34;4203052;81;28533;-86
2022/11/15 21:15:35;;;;;;;50.10;28.12;;;;;;;13.70;92.62;98514.65;4229045;81;28533;-88
2022/11/15 21:21:48;;;;;;;57.93;31.27;;;;;;;13.55;94.26;98525.64;4220232;80;28545;-90
2022/11/15 21:27:52;;;;;;;58.60;30.73;;;;;;;13.53;95.05;98519.14;4117084;83;28517;-78
2022/11/15 21:33:54;;;;;;;55.65;30.75;;;;;;;13.84;93.71;98506.83;4127997;83;28559;-77
2022/11/15 21:39:58;;;;;;;53.80;30.43;;;;;;;13.67;94.46;98501.13;4220313;83;28558;-83
2022/11/15 21:46:05;;;;;;;52.75;29.57;;;;;;;13.64;94.76;98495.70;4208728;83;28559;-77
2022/11/15 21:52:06;;;;;;;50.58;29.00;;;;;;;13.69;94.71;98492.73;4189756;83;28475;-78
2022/11/15 21:58:08;;;;;;;46.98;27.75;;;;;;;13.61;95.16;98488.66;4200649;83;28548;-78
2022/11/15 22:04:09;;;;;;;47.95;27.90;;;;;;;13.61;95.42;98475.98;4221231;81;28557;-79
2022/11/15 22:10:10;;;;;;;51.40;28.00;;;;;;;13.53;95.92;98461.08;4195424;83;28521;-82
2022/11/15 22:16:12;;;;;;;51.35;29.18;;;;;;;13.56;96.04;98448.15;4193338;83;28515;-82
2022/11/15 22:22:13;;;;;;;55.73;29.98;;;;;;;13.69;95.49;98453.05;4198727;82;28511;-81
2022/11/15 22:28:15;;;;;;;49.85;28.23;;;;;;;13.76;94.91;98443.33;4187189;83;28523;-83
2022/11/15 22:34:17;;;;;;;53.87;29.50;;;;;;;13.87;94.27;98438.22;4168566;83;28530;-79
2022/11/15 22:40:19;;;;;;;48.25;28.67;;;;;;;13.84;94.41;98434.70;4204463;83;28510;-78
2022/11/15 22:46:20;;;;;;;51.30;28.42;;;;;;;13.66;95.80;98436.02;4206947;83;28581;-79
2022/11/15 22:52:22;;;;;;;49.80;28.50;;;;;;;13.69;96.14;98435.48;4145257;83;28625;-79
2022/11/15 22:58:27;;;;;;;49.65;28.30;;;;;;;13.68;96.33;98428.46;4200333;83;28519;-79
2022/11/15 23:04:28;;;;;;;69.92;38.98;;;;;;;13.61;96.86;98426.02;4232819;83;29009;-77
2022/11/15 23:16:49;;;;;;;75.35;42.75;;;;;;;13.51;95.60;98417.33;4242559;82;28539;-77
2022/11/15 23:22:51;;;;;;;72.85;41.77;;;;;;;13.16;98.84;98412.06;4239984;82;28554;-78
2022/11/15 23:28:52;;;;;;;72.05;39.03;;;;;;;13.75;95.51;98396.61;4238242;82;28542;-78
2022/11/15 23:34:53;;;;;;;69.27;38.60;;;;;;;13.76;95.38;98388.77;4219592;82;28581;-79
2022/11/15 23:40:55;;;;;;;67.85;37.33;;;;;;;13.67;96.20;98383.63;4208703;83;28496;-79
2022/11/15 23:46:56;;;;;;;71.33;38.38;;;;;;;13.57;97.50;98370.10;4224679;83;28641;-78
2022/11/15 23:52:58;;;;;;;65.08;36.88;;;;;;;13.46;99.03;98372.78;4204399;83;28442;-78
2022/11/15 23:58:59;;;;;;;67.95;37.75;;;;;;;13.49;98.73;98361.44;4199222;83;28495;-79
